createdAt,value
2022-10-05T00:00:00.143Z,100728.05
2022-10-05T00:05:19.717Z,100738.02
2022-10-05T00:10:22.982Z,100731.84
2022-10-05T00:15:25.730Z,100727.36
2022-10-05T00:20:28.670Z,100741.00
2022-10-05T00:25:31.399Z,100727.85
2022-10-05T00:30:34.272Z,100722.06
2022-10-05T00:35:36.993Z,100725.34
2022-10-05T00:40:48.670Z,100721.41
2022-10-05T00:46:00.346Z,100726.66
2022-10-05T00:51:29.096Z,100723.39
2022-10-05T00:56:47.601Z,100721.98
2022-10-05T01:02:12.035Z,100702.61
2022-10-05T01:07:37.357Z,100699.09
2022-10-05T01:12:48.734Z,100686.48
2022-10-05T01:18:10.374Z,100681.60
2022-10-05T01:23:57.957Z,100676.85
2022-10-05T01:29:24.200Z,100663.27
2022-10-05T01:34:54.381Z,100672.70
2022-10-05T01:40:09.309Z,100676.48
2022-10-05T01:45:24.932Z,100685.98
2022-10-05T01:51:00.936Z,100684.05
2022-10-05T01:56:19.507Z,100682.96
2022-10-05T02:01:24.983Z,100670.02
2022-10-05T02:06:33.098Z,100658.34
2022-10-05T02:11:39.280Z,100658.73
2022-10-05T02:16:44.485Z,100660.38
2022-10-05T02:22:04.364Z,100644.98
2022-10-05T02:27:10.807Z,100640.02
2022-10-05T02:32:20.051Z,100638.06
2022-10-05T02:37:29.257Z,100638.03
2022-10-05T02:42:55.152Z,100635.71
2022-10-05T02:48:10.975Z,100636.88
2022-10-05T02:53:14.877Z,100647.34
2022-10-05T02:58:24.824Z,100649.85
2022-10-05T03:03:54.692Z,100638.00
2022-10-05T03:09:04.340Z,100640.04
2022-10-05T03:14:13.184Z,100646.89
2022-10-05T03:19:49.364Z,100643.17
2022-10-05T03:25:21.701Z,100638.70
2022-10-05T03:30:26.737Z,100630.73
2022-10-05T03:35:48.128Z,100627.23
2022-10-05T03:40:56.073Z,100632.27
2022-10-05T03:46:08.429Z,100623.02
2022-10-05T03:51:35.013Z,100624.05
2022-10-05T03:56:44.455Z,100608.17
2022-10-05T04:02:05.546Z,100613.52
2022-10-05T04:07:32.963Z,100610.23
2022-10-05T04:12:41.462Z,100608.20
2022-10-05T04:17:49.028Z,100609.53
2022-10-05T04:23:10.099Z,100598.33
2022-10-05T04:28:29.658Z,100604.02
2022-10-05T04:33:34.953Z,100608.88
2022-10-05T04:38:59.258Z,100603.81
2022-10-05T04:44:35.995Z,100604.83
2022-10-05T04:50:00.369Z,100602.89
2022-10-05T04:55:22.635Z,100596.55
2022-10-05T05:00:31.613Z,100600.81
2022-10-05T05:06:16.399Z,100587.16
2022-10-05T05:11:35.996Z,100591.59
2022-10-05T05:16:42.280Z,100582.63
2022-10-05T05:22:00.305Z,100599.75
2022-10-05T05:27:24.782Z,100595.35
2022-10-05T05:32:33.571Z,100599.23
2022-10-05T05:37:58.496Z,100599.10
2022-10-05T05:43:14.404Z,100597.05
2022-10-05T05:48:29.217Z,100600.55
2022-10-05T05:53:34.406Z,100609.38
2022-10-05T05:58:52.404Z,100615.90
2022-10-05T06:03:57.543Z,100622.63
2022-10-05T06:09:06.821Z,100621.69
2022-10-05T06:14:17.371Z,100606.21
2022-10-05T06:19:23.972Z,100595.84
2022-10-05T06:24:40.112Z,100577.42
2022-10-05T06:30:05.857Z,100585.77
2022-10-05T06:35:08.582Z,100587.82
2022-10-05T06:40:31.464Z,100584.96
2022-10-05T06:45:55.829Z,100596.43
2022-10-05T06:51:12.415Z,100587.48
2022-10-05T06:56:31.589Z,100594.26
2022-10-05T07:01:45.495Z,100589.18
2022-10-05T07:07:14.953Z,100593.55
2022-10-05T07:12:30.173Z,100591.91
2022-10-05T07:17:52.499Z,100571.20
2022-10-05T07:23:03.297Z,100560.78
2022-10-05T07:28:13.614Z,100560.59
2022-10-05T07:33:34.792Z,100558.77
2022-10-05T07:38:59.445Z,100558.11
2022-10-05T07:44:22.959Z,100568.23
2022-10-05T07:49:25.852Z,100574.40
2022-10-05T07:54:52.147Z,100581.16
2022-10-05T08:00:11.498Z,100569.83
2022-10-05T08:05:28.908Z,100566.13
2022-10-05T08:10:44.180Z,100557.73
2022-10-05T08:15:53.820Z,100542.27
2022-10-05T08:20:58.740Z,100549.80
2022-10-05T08:26:22.857Z,100554.08
2022-10-05T08:31:32.602Z,100567.73
2022-10-05T08:37:09.104Z,100569.80
2022-10-05T08:42:36.858Z,100566.46
2022-10-05T08:48:15.829Z,100577.14
2022-10-05T08:53:45.425Z,100570.88
2022-10-05T08:59:28.118Z,100569.11
2022-10-05T09:04:35.937Z,100572.96
2022-10-05T09:10:28.625Z,100568.25
2022-10-05T09:16:01.241Z,100557.16
2022-10-05T09:21:44.894Z,100548.61
2022-10-05T09:27:10.348Z,100537.33
2022-10-05T09:32:46.298Z,100554.82
2022-10-05T09:38:17.089Z,100568.05
2022-10-05T09:43:42.692Z,100568.41
2022-10-05T09:48:48.275Z,100571.09
2022-10-05T09:54:22.741Z,100571.31
2022-10-05T09:59:53.698Z,100566.29
2022-10-05T10:05:05.905Z,100559.90
2022-10-05T10:10:40.567Z,100565.53
2022-10-05T10:16:14.793Z,100563.14
2022-10-05T10:21:42.200Z,100561.90
2022-10-05T10:27:26.567Z,100550.73
2022-10-05T10:33:13.700Z,100560.36
2022-10-05T10:38:44.017Z,100576.86
2022-10-05T10:44:15.130Z,100571.36
2022-10-05T10:49:48.236Z,100568.22
2022-10-05T10:55:46.995Z,100559.54
2022-10-05T11:00:57.812Z,100534.45
2022-10-05T11:06:43.944Z,100526.31
2022-10-05T11:12:14.027Z,100529.60
2022-10-05T11:17:35.141Z,100516.33
2022-10-05T11:22:54.983Z,100509.52
2022-10-05T11:28:45.824Z,100515.03
2022-10-05T11:34:06.942Z,100519.49
2022-10-05T11:39:44.393Z,100514.73
2022-10-05T11:44:55.949Z,100517.20
2022-10-05T11:50:20.578Z,100510.05
2022-10-05T11:55:45.720Z,100510.70
2022-10-05T12:01:19.870Z,100510.40
2022-10-05T12:07:00.697Z,100512.19
2022-10-05T12:12:18.752Z,100506.12
2022-10-05T12:17:24.498Z,100506.02
2022-10-05T12:22:27.472Z,100504.48
2022-10-05T12:27:38.581Z,100511.46
2022-10-05T12:33:02.348Z,100500.96
2022-10-05T12:38:25.585Z,100500.19
2022-10-05T12:43:54.307Z,100504.54
2022-10-05T12:49:27.927Z,100511.27
2022-10-05T12:54:30.612Z,100508.61
2022-10-05T12:59:39.652Z,100510.89
2022-10-05T13:05:10.345Z,100506.80
2022-10-05T13:10:36.315Z,100510.50
2022-10-05T13:16:17.114Z,100503.59
2022-10-05T13:21:38.720Z,100507.20
2022-10-05T13:26:50.249Z,100498.01
2022-10-05T13:32:12.753Z,100499.48
2022-10-05T13:37:25.045Z,100503.77
2022-10-05T13:42:59.459Z,100497.66
2022-10-05T13:48:29.591Z,100497.48
2022-10-05T13:54:02.278Z,100500.46
2022-10-05T13:59:16.197Z,100496.23
2022-10-05T14:04:27.312Z,100501.20
2022-10-05T14:09:33.942Z,100497.89
2022-10-05T14:14:54.425Z,100491.98
2022-10-05T14:20:00.309Z,100486.82
2022-10-05T14:25:03.007Z,100476.76
2022-10-05T14:30:08.392Z,100467.57
2022-10-05T14:35:12.883Z,100472.50
2022-10-05T14:40:31.638Z,100485.31
2022-10-05T14:45:35.589Z,100486.65
2022-10-05T14:51:03.310Z,100488.23
2022-10-05T14:56:27.308Z,100482.45
2022-10-05T15:01:32.439Z,100478.55
2022-10-05T15:06:39.966Z,100478.05
2022-10-05T15:11:53.517Z,100476.58
2022-10-05T15:17:11.488Z,100480.52
2022-10-05T15:22:33.780Z,100475.17
2022-10-05T15:27:39.550Z,100482.86
2022-10-05T15:32:57.464Z,100477.02
2022-10-05T15:38:19.533Z,100470.16
2022-10-05T15:43:23.498Z,100470.25
2022-10-05T15:48:54.537Z,100468.52
2022-10-05T15:54:36.610Z,100470.52
2022-10-05T15:59:58.595Z,100465.80
2022-10-05T16:05:20.993Z,100461.77
2022-10-05T16:10:25.862Z,100462.95
2022-10-05T16:15:41.421Z,100463.95
2022-10-05T16:20:50.570Z,100460.58
2022-10-05T16:26:09.260Z,100463.29
2022-10-05T16:31:31.205Z,100468.16
2022-10-05T16:36:46.142Z,100473.82
2022-10-05T16:42:21.349Z,100470.17
2022-10-05T16:47:46.590Z,100469.84
2022-10-05T16:52:56.849Z,100465.64
2022-10-05T16:58:04.056Z,100470.02
2022-10-05T17:03:35.486Z,100471.94
2022-10-05T17:08:51.683Z,100468.39
2022-10-05T17:14:25.422Z,100469.45
2022-10-05T17:19:28.059Z,100466.52
2022-10-05T17:24:31.963Z,100465.48
2022-10-05T17:29:51.963Z,100468.52
2022-10-05T17:35:04.836Z,100465.98
2022-10-05T17:40:32.185Z,100459.50
2022-10-05T17:45:34.851Z,100453.38
2022-10-05T17:51:07.114Z,100452.79
2022-10-05T17:56:10.595Z,100454.57
2022-10-05T18:01:33.993Z,100442.80
2022-10-05T18:06:44.871Z,100441.45
2022-10-05T18:12:08.357Z,100436.21
2022-10-05T18:17:12.956Z,100433.61
2022-10-05T18:22:15.780Z,100433.45
2022-10-05T18:27:41.412Z,100430.39
2022-10-05T18:32:46.832Z,100424.38
2022-10-05T18:38:10.281Z,100425.14
2022-10-05T18:43:41.329Z,100422.33
2022-10-05T18:48:56.416Z,100419.86
2022-10-05T18:53:59.033Z,100417.91
2022-10-05T18:59:43.288Z,100412.52
2022-10-05T19:05:23.624Z,100410.46
2022-10-05T19:10:37.135Z,100404.07
2022-10-05T19:15:54.224Z,100404.59
2022-10-05T19:21:12.519Z,100402.14
2022-10-05T19:26:29.251Z,100403.69
2022-10-05T19:31:48.248Z,100397.85
2022-10-05T19:36:54.706Z,100393.14
2022-10-05T19:42:04.422Z,100390.10
2022-10-05T19:47:22.584Z,100392.55
2022-10-05T19:52:40.830Z,100396.08
2022-10-05T19:57:51.857Z,100396.58
2022-10-05T20:03:27.365Z,100400.33
2022-10-05T20:08:43.819Z,100406.16
2022-10-05T20:13:52.667Z,100407.84
2022-10-05T20:19:13.977Z,100411.77
2022-10-05T20:24:25.849Z,100406.29
2022-10-05T20:29:30.347Z,100408.14
2022-10-05T20:34:35.047Z,100391.67
2022-10-05T20:39:38.815Z,100387.58
2022-10-05T20:44:41.803Z,100378.86
2022-10-05T20:49:44.939Z,100373.71
2022-10-05T20:54:48.245Z,100377.90
2022-10-05T20:59:51.557Z,100371.92
2022-10-05T21:04:54.370Z,100374.47
2022-10-05T21:09:57.234Z,100383.30
2022-10-05T21:15:00.452Z,100378.89
2022-10-05T21:20:03.454Z,100390.30
2022-10-05T21:25:09.107Z,100385.56
2022-10-05T21:30:12.602Z,100383.00
2022-10-05T21:35:15.443Z,100384.73
2022-10-05T21:40:18.229Z,100381.59
2022-10-05T21:45:21.041Z,100382.77
2022-10-05T21:50:25.599Z,100378.94
2022-10-05T21:55:28.729Z,100376.66
2022-10-05T22:00:31.783Z,100377.17
2022-10-05T22:05:34.985Z,100378.36
2022-10-05T22:10:38.022Z,100378.84
2022-10-05T22:15:40.701Z,100380.48
2022-10-05T22:20:45.534Z,100379.11
2022-10-05T22:25:48.415Z,100383.96
2022-10-05T22:30:51.104Z,100378.89
2022-10-05T22:35:54.584Z,100383.87
2022-10-05T22:40:57.591Z,100383.73
2022-10-05T22:46:01.234Z,100385.66
2022-10-05T22:51:04.645Z,100391.05
2022-10-05T22:56:10.016Z,100392.67
2022-10-05T23:01:16.928Z,100391.33
2022-10-05T23:06:20.837Z,100389.98
2022-10-05T23:11:28.241Z,100389.71
2022-10-05T23:16:30.978Z,100388.35
2022-10-05T23:21:33.849Z,100386.28
2022-10-05T23:26:37.027Z,100388.80
2022-10-05T23:31:39.734Z,100385.27
2022-10-05T23:36:42.432Z,100387.88
2022-10-05T23:41:45.130Z,100382.36
2022-10-05T23:46:47.896Z,100377.91
2022-10-05T23:51:50.634Z,100379.86
2022-10-05T23:56:53.318Z,100377.47
